Union Aéronautique de la Côte d'Azur

Union Aéronautique de la Côte d'Azur
UACA
Approuvé A.T.O. EASA – N°FR.ATO.0108

UNION des aéroclubs
Cannes “Ailes d’Azur”, Nice “Côte d’Azur”, Grasse “St Exupery”, ACCA “Francis Séverac”

Un cache-pitot se trouve à bord de chaque avion. Pensez à le mettre en place à la fin de chaque vol !

Avant de quitter l'avion, vérifiez que vous n'emportez pas la checklist

Un vol ne s'entreprend qu'avec un pare-brise parfaitement propre, il en va de votre sécurité, et de celle des autres

Après chaque vol, merci de mettre en place les pares-soleil!


Météo à Cannes:
METAR
LFMD 251630Z AUTO 16004KT 040V190 9999 FEW026 BKN054 BKN072 20/17 Q1018 NOSIG =

TAF
LFMD 251400Z 2515/2615 15007KT 9999 SCT021 PROB30 TEMPO 2515/2517 SHRA SCT018TCU SCT021 BECMG 2518/2520 VRB03KT BKN030 PROB40 TEMPO 2520/2604 RA SCT014 BKN030 BECMG 2607/2609 14010KT BECMG 2612/2614 SCT018 PROB40 TEMPO 2614/2615 SHRA SCT015TCU SCT018 =

SR / SS: 05:23 / 17:23 UTC (LFMD 2017-09-25)